createdAt,value
2022-11-26T00:01:14.977Z,7.76
2022-11-26T00:03:41.795Z,7.89
2022-11-26T00:06:29.047Z,7.86
2022-11-26T00:08:55.123Z,7.98
2022-11-26T00:11:21.215Z,8.03
2022-11-26T00:13:47.262Z,7.87
2022-11-26T00:16:14.485Z,7.53
2022-11-26T00:18:41.511Z,7.89
2022-11-26T00:21:23.496Z,7.96
2022-11-26T00:23:50.032Z,7.96
2022-11-26T00:26:18.743Z,8.06
2022-11-26T00:28:55.885Z,7.99
2022-11-26T00:31:22.735Z,7.96
2022-11-26T00:33:49.091Z,7.92
2022-11-26T00:36:17.784Z,8.06
2022-11-26T00:38:45.452Z,8.09
2022-11-26T00:41:17.405Z,7.64
2022-11-26T00:43:44.595Z,7.61
2022-11-26T00:46:18.350Z,7.47
2022-11-26T00:48:44.525Z,7.80
2022-11-26T00:51:21.977Z,7.89
2022-11-26T00:53:48.397Z,8.01
2022-11-26T00:56:17.537Z,7.95
2022-11-26T00:58:44.602Z,7.99
2022-11-26T01:01:13.074Z,8.03
2022-11-26T01:03:42.155Z,6.47
2022-11-26T01:06:15.022Z,7.52
2022-11-26T01:08:41.201Z,7.95
2022-11-26T01:11:09.125Z,7.87
2022-11-26T01:13:35.178Z,7.77
2022-11-26T01:16:03.672Z,7.91
2022-11-26T01:18:34.051Z,7.89
2022-11-26T01:21:00.153Z,7.98
2022-11-26T01:23:26.244Z,7.99
2022-11-26T01:25:52.315Z,7.91
2022-11-26T01:28:19.057Z,8.05
2022-11-26T01:30:45.669Z,7.47
2022-11-26T01:33:11.707Z,8.16
2022-11-26T01:35:37.844Z,7.99
2022-11-26T01:38:04.688Z,7.97
2022-11-26T01:40:37.584Z,7.94
2022-11-26T01:43:06.108Z,7.99
2022-11-26T01:45:32.369Z,7.61
2022-11-26T01:47:58.489Z,8.04
2022-11-26T01:50:27.308Z,7.97
2022-11-26T01:53:06.424Z,8.04
2022-11-26T01:55:41.481Z,7.98
2022-11-26T01:58:12.737Z,7.93
2022-11-26T02:00:39.286Z,8.02
2022-11-26T02:03:05.853Z,7.84
2022-11-26T02:05:36.492Z,7.98
2022-11-26T02:08:02.583Z,7.92
2022-11-26T02:10:28.604Z,7.82
2022-11-26T02:12:54.707Z,7.81
2022-11-26T02:15:22.684Z,7.72
2022-11-26T02:17:55.536Z,7.42
2022-11-26T02:20:30.673Z,7.69
2022-11-26T02:23:07.880Z,7.71
2022-11-26T02:25:52.729Z,7.78
2022-11-26T02:28:24.909Z,7.74
2022-11-26T02:31:13.360Z,7.83
2022-11-26T02:33:55.366Z,6.77
2022-11-26T02:36:27.331Z,7.34
2022-11-26T02:38:53.383Z,7.78
2022-11-26T02:41:19.438Z,7.85
2022-11-26T02:43:45.789Z,7.79
2022-11-26T02:46:15.845Z,6.64
2022-11-26T02:48:45.261Z,8.02
2022-11-26T02:51:14.788Z,5.14
2022-11-26T02:53:41.527Z,7.86
2022-11-26T02:56:16.834Z,8.07
2022-11-26T02:58:43.569Z,8.13
2022-11-26T03:01:13.213Z,8.18
2022-11-26T03:03:46.391Z,8.22
2022-11-26T03:06:13.909Z,8.21
2022-11-26T03:08:40.310Z,8.09
2022-11-26T03:11:06.410Z,7.99
2022-11-26T03:13:32.454Z,7.89
2022-11-26T03:15:58.568Z,8.01
2022-11-26T03:18:24.665Z,8.02
2022-11-26T03:20:52.554Z,7.99
2022-11-26T03:23:19.040Z,7.78
2022-11-26T03:25:45.122Z,7.57
2022-11-26T03:28:11.296Z,5.84
2022-11-26T03:30:37.336Z,7.79
2022-11-26T03:33:03.413Z,7.85
2022-11-26T03:35:29.460Z,7.92
2022-11-26T03:37:55.509Z,7.89
2022-11-26T03:40:21.666Z,7.83
2022-11-26T03:42:47.689Z,7.87
2022-11-26T03:45:13.754Z,7.79
2022-11-26T03:47:39.798Z,7.09
2022-11-26T03:50:06.702Z,6.42
2022-11-26T03:52:33.103Z,7.37
2022-11-26T03:54:59.165Z,7.45
2022-11-26T03:57:25.282Z,7.51
2022-11-26T03:59:51.320Z,7.45
2022-11-26T04:02:17.340Z,7.43
2022-11-26T04:04:43.395Z,7.46
2022-11-26T04:07:09.555Z,7.21
2022-11-26T04:09:35.775Z,6.92
2022-11-26T04:12:01.835Z,7.23
2022-11-26T04:14:28.026Z,6.98
2022-11-26T04:16:54.128Z,6.62
2022-11-26T04:19:20.224Z,7.20
2022-11-26T04:21:46.312Z,5.97
2022-11-26T04:24:12.413Z,7.20
2022-11-26T04:26:38.498Z,7.26
2022-11-26T04:29:04.625Z,4.83
2022-11-26T04:31:31.177Z,6.41
2022-11-26T04:33:57.245Z,6.87
2022-11-26T04:36:23.296Z,7.00
2022-11-26T04:38:49.326Z,6.96
2022-11-26T04:41:15.365Z,6.40
2022-11-26T04:43:41.427Z,6.86
2022-11-26T04:46:07.573Z,6.79
2022-11-26T04:48:33.777Z,7.04
2022-11-26T04:50:59.813Z,5.85
2022-11-26T04:53:25.848Z,7.07
2022-11-26T04:55:52.075Z,6.97
2022-11-26T04:58:19.202Z,6.86
2022-11-26T05:00:50.252Z,6.94
2022-11-26T05:03:16.886Z,6.90
2022-11-26T05:05:43.088Z,6.84
2022-11-26T05:08:09.176Z,6.83
2022-11-26T05:10:35.229Z,6.82
2022-11-26T05:13:01.284Z,6.49
2022-11-26T05:15:27.383Z,6.33
2022-11-26T05:17:53.416Z,6.67
2022-11-26T05:20:19.528Z,6.57
2022-11-26T05:22:45.684Z,6.66
2022-11-26T05:25:11.793Z,6.56
2022-11-26T05:27:37.829Z,6.67
2022-11-26T05:30:04.526Z,6.10
2022-11-26T05:32:30.580Z,6.40
2022-11-26T05:35:00.077Z,6.44
2022-11-26T05:37:26.625Z,6.48
2022-11-26T05:39:52.680Z,6.30
2022-11-26T05:42:18.752Z,6.49
2022-11-26T05:44:44.848Z,6.47
2022-11-26T05:47:10.887Z,6.57
2022-11-26T05:49:36.910Z,6.55
2022-11-26T05:52:03.017Z,6.24
2022-11-26T05:54:29.063Z,6.36
2022-11-26T05:56:59.916Z,5.92
2022-11-26T05:59:27.008Z,6.47
2022-11-26T06:01:53.088Z,6.45
2022-11-26T06:04:19.133Z,6.38
2022-11-26T06:06:45.215Z,5.52
2022-11-26T06:09:11.256Z,6.23
2022-11-26T06:11:37.317Z,6.20
2022-11-26T06:14:03.666Z,6.15
2022-11-26T06:16:29.816Z,6.17
2022-11-26T06:18:56.025Z,5.53
2022-11-26T06:21:22.068Z,6.02
2022-11-26T06:23:55.854Z,5.96
2022-11-26T06:26:25.073Z,4.68
2022-11-26T06:28:51.098Z,6.02
2022-11-26T06:31:17.198Z,6.11
2022-11-26T06:33:43.277Z,6.15
2022-11-26T06:36:09.870Z,6.05
2022-11-26T06:38:35.949Z,6.11
2022-11-26T06:41:04.697Z,6.02
2022-11-26T06:43:31.488Z,5.92
2022-11-26T06:46:05.409Z,5.95
2022-11-26T06:48:32.647Z,5.98
2022-11-26T06:51:04.282Z,3.34
2022-11-26T06:53:30.458Z,4.71
2022-11-26T06:56:04.203Z,5.61
2022-11-26T06:58:30.395Z,4.60
2022-11-26T07:00:56.524Z,4.78
2022-11-26T07:03:25.469Z,3.11
2022-11-26T07:05:53.083Z,4.38
2022-11-26T07:08:19.138Z,5.06
2022-11-26T07:10:49.052Z,5.57
2022-11-26T07:13:15.446Z,4.84
2022-11-26T07:15:41.538Z,4.47
2022-11-26T07:18:07.651Z,4.88
2022-11-26T07:20:35.476Z,4.69
2022-11-26T07:23:03.832Z,5.62
2022-11-26T07:25:30.037Z,5.43
2022-11-26T07:27:56.277Z,4.04
2022-11-26T07:30:22.449Z,4.84
2022-11-26T07:32:48.480Z,5.26
2022-11-26T07:35:14.597Z,5.66
2022-11-26T07:37:40.636Z,5.76
2022-11-26T07:40:07.210Z,5.45
2022-11-26T07:42:33.347Z,5.79
2022-11-26T07:44:59.400Z,5.72
2022-11-26T07:47:25.488Z,5.44
2022-11-26T07:49:51.652Z,5.81
2022-11-26T07:52:17.672Z,5.71
2022-11-26T07:54:43.699Z,5.83
2022-11-26T07:57:10.246Z,4.52
2022-11-26T07:59:36.284Z,5.93
2022-11-26T08:02:02.372Z,5.97
2022-11-26T08:04:28.437Z,6.05
2022-11-26T08:06:54.482Z,5.98
2022-11-26T08:09:20.525Z,6.07
2022-11-26T08:11:46.572Z,6.06
2022-11-26T08:14:12.744Z,5.81
2022-11-26T08:16:39.408Z,5.89
2022-11-26T08:19:08.041Z,5.99
2022-11-26T08:21:34.542Z,6.21
2022-11-26T08:24:00.618Z,5.81
2022-11-26T08:26:34.653Z,4.90
2022-11-26T08:29:03.360Z,5.82
2022-11-26T08:31:29.514Z,6.49
2022-11-26T08:33:57.336Z,6.49
2022-11-26T08:36:23.394Z,6.15
2022-11-26T08:38:49.530Z,6.20
2022-11-26T08:41:15.577Z,6.54
2022-11-26T08:46:27.884Z,5.88
2022-11-26T08:48:57.275Z,6.25
2022-11-26T08:51:24.513Z,5.72
2022-11-26T08:53:50.570Z,6.00
2022-11-26T08:56:16.593Z,5.91
2022-11-26T08:58:44.326Z,4.86
2022-11-26T09:01:24.459Z,5.88
2022-11-26T09:03:51.868Z,6.14
2022-11-26T09:06:19.092Z,6.08
2022-11-26T09:09:03.857Z,6.09
2022-11-26T09:11:30.717Z,5.71
2022-11-26T09:13:57.781Z,6.03
2022-11-26T09:16:24.672Z,5.81
2022-11-26T09:18:51.160Z,4.97
2022-11-26T09:21:18.067Z,5.94
2022-11-26T09:23:44.201Z,5.89
2022-11-26T09:26:10.352Z,5.85
2022-11-26T09:28:36.475Z,5.61
2022-11-26T09:31:02.575Z,5.26
2022-11-26T09:33:29.271Z,6.12
2022-11-26T09:36:06.321Z,5.56
2022-11-26T09:38:33.016Z,6.40
2022-11-26T09:41:02.065Z,6.14
2022-11-26T09:43:55.186Z,6.26
2022-11-26T09:47:10.117Z,6.50
2022-11-26T09:49:36.043Z,6.21
2022-11-26T09:52:02.829Z,5.90
2022-11-26T09:54:29.765Z,6.40
2022-11-26T09:57:09.317Z,6.24
2022-11-26T09:59:36.180Z,6.32
2022-11-26T10:02:02.358Z,6.51
2022-11-26T10:04:30.941Z,6.34
2022-11-26T10:07:33.864Z,6.45
2022-11-26T10:10:19.745Z,6.23
2022-11-26T10:13:20.246Z,6.47
2022-11-26T10:16:26.701Z,6.11
2022-11-26T10:19:07.129Z,6.55
2022-11-26T10:22:03.147Z,6.26
2022-11-26T10:24:32.316Z,6.63
2022-11-26T10:27:09.546Z,6.02
2022-11-26T10:29:43.283Z,6.34
2022-11-26T10:32:16.307Z,5.14
2022-11-26T10:34:49.909Z,7.12
2022-11-26T10:37:16.416Z,7.36
2022-11-26T10:39:42.984Z,6.36
2022-11-26T10:42:13.997Z,7.69
2022-11-26T10:44:41.428Z,8.20
2022-11-26T10:47:26.013Z,9.08
2022-11-26T10:50:39.711Z,8.09
2022-11-26T10:53:04.308Z,8.87
2022-11-26T10:55:33.653Z,9.69
2022-11-26T10:58:14.261Z,9.74
2022-11-26T11:00:48.989Z,8.43
2022-11-26T11:03:44.546Z,8.09
2022-11-26T11:06:27.278Z,7.06
2022-11-26T11:08:53.884Z,8.65
2022-11-26T11:11:29.843Z,8.43
2022-11-26T11:13:56.561Z,8.15
2022-11-26T11:16:29.220Z,8.51
2022-11-26T11:18:58.066Z,8.04
2022-11-26T11:21:29.160Z,7.65
2022-11-26T11:24:26.533Z,6.78
2022-11-26T11:26:56.016Z,7.41
2022-11-26T11:29:28.107Z,7.35
2022-11-26T11:31:55.435Z,6.68
2022-11-26T11:34:39.297Z,7.07
2022-11-26T11:37:14.948Z,6.79
2022-11-26T11:39:42.272Z,6.88
2022-11-26T11:42:34.721Z,7.10
2022-11-26T11:45:00.955Z,4.16
2022-11-26T11:47:57.266Z,6.83
2022-11-26T11:50:23.495Z,7.04
2022-11-26T11:53:00.027Z,7.33
2022-11-26T11:55:51.555Z,7.68
2022-11-26T11:58:29.889Z,7.53
2022-11-26T12:01:14.814Z,7.37
2022-11-26T12:04:04.298Z,7.31
2022-11-26T12:06:51.849Z,7.19
2022-11-26T12:09:41.865Z,7.45
2022-11-26T12:12:22.811Z,6.66
2022-11-26T12:14:52.087Z,7.07
2022-11-26T12:17:50.273Z,8.11
2022-11-26T12:20:27.798Z,7.82
2022-11-26T12:23:22.809Z,7.87
2022-11-26T12:26:06.505Z,8.00
2022-11-26T12:28:54.676Z,8.11
2022-11-26T12:31:37.011Z,7.92
2022-11-26T12:34:31.326Z,8.32
2022-11-26T12:37:02.172Z,8.64
2022-11-26T12:39:58.999Z,8.62
2022-11-26T12:42:32.409Z,8.93
2022-11-26T12:45:17.651Z,8.87
2022-11-26T12:47:50.207Z,8.38
2022-11-26T12:50:45.968Z,8.56
2022-11-26T12:53:18.421Z,7.97
2022-11-26T12:55:55.124Z,8.49
2022-11-26T12:58:26.845Z,8.34
2022-11-26T13:00:54.186Z,8.27
2022-11-26T13:03:29.111Z,8.72
2022-11-26T13:06:32.643Z,8.57
2022-11-26T13:09:29.611Z,8.37
2022-11-26T13:12:06.440Z,8.22
2022-11-26T13:14:40.285Z,8.03
2022-11-26T13:17:13.347Z,8.21
2022-11-26T13:19:41.327Z,8.12
2022-11-26T13:22:26.300Z,8.09
2022-11-26T13:25:21.409Z,8.06
2022-11-26T13:28:25.340Z,8.13
2022-11-26T13:31:24.049Z,7.82
2022-11-26T13:34:15.190Z,8.12
2022-11-26T13:36:56.475Z,8.03
2022-11-26T13:39:34.573Z,8.13
2022-11-26T13:42:21.888Z,8.21
2022-11-26T13:45:01.137Z,8.00
2022-11-26T13:47:34.808Z,8.30
2022-11-26T13:50:22.824Z,3.53
2022-11-26T13:53:04.956Z,8.15
2022-11-26T13:55:34.039Z,8.10
2022-11-26T13:58:03.057Z,8.33
2022-11-26T14:00:31.298Z,8.48
2022-11-26T14:02:58.741Z,8.00
2022-11-26T14:05:50.337Z,8.26
2022-11-26T14:08:40.487Z,8.41
2022-11-26T14:11:07.311Z,8.16
2022-11-26T14:13:33.536Z,8.34
2022-11-26T14:16:09.380Z,8.31
2022-11-26T14:18:47.530Z,8.19
2022-11-26T14:21:18.142Z,8.17
2022-11-26T14:23:46.790Z,8.19
2022-11-26T14:26:15.558Z,8.21
2022-11-26T14:28:41.769Z,8.09
2022-11-26T14:31:24.787Z,8.00
2022-11-26T14:33:52.400Z,8.05
2022-11-26T14:36:24.301Z,7.97
2022-11-26T14:39:23.136Z,7.87
2022-11-26T14:42:00.355Z,7.98
2022-11-26T14:44:30.231Z,3.30
2022-11-26T14:46:58.721Z,7.81
2022-11-26T14:49:35.505Z,7.82
2022-11-26T14:52:04.729Z,7.95
2022-11-26T14:54:33.303Z,7.72
2022-11-26T14:57:06.197Z,6.50
2022-11-26T14:59:32.377Z,7.78
2022-11-26T15:01:58.428Z,7.83
2022-11-26T15:04:25.860Z,7.70
2022-11-26T15:06:52.101Z,7.56
2022-11-26T15:09:26.705Z,7.80
2022-11-26T15:11:55.767Z,7.40
2022-11-26T15:14:29.159Z,7.37
2022-11-26T15:17:01.971Z,6.33
2022-11-26T15:19:32.253Z,7.41
2022-11-26T15:21:59.820Z,7.14
2022-11-26T15:24:26.173Z,7.45
2022-11-26T15:26:52.244Z,6.07
2022-11-26T15:29:30.492Z,7.49
2022-11-26T15:31:57.001Z,7.40
2022-11-26T15:34:23.876Z,7.41
2022-11-26T15:36:49.977Z,7.54
2022-11-26T15:39:28.353Z,7.52
2022-11-26T15:42:01.214Z,6.06
2022-11-26T15:44:28.229Z,6.18
2022-11-26T15:46:55.605Z,7.16
2022-11-26T15:49:24.573Z,6.30
2022-11-26T15:52:03.010Z,6.41
2022-11-26T15:54:49.630Z,6.93
2022-11-26T15:57:23.508Z,6.95
2022-11-26T15:59:54.845Z,6.99
2022-11-26T16:02:24.557Z,7.12
2022-11-26T16:04:52.636Z,7.27
2022-11-26T16:07:20.886Z,7.34
2022-11-26T16:09:48.586Z,7.33
2022-11-26T16:12:29.696Z,7.35
2022-11-26T16:15:07.334Z,7.47
2022-11-26T16:17:33.654Z,5.28
2022-11-26T16:19:59.847Z,7.35
2022-11-26T16:22:30.547Z,7.42
2022-11-26T16:25:03.297Z,7.22
2022-11-26T16:27:30.874Z,7.20
2022-11-26T16:29:57.028Z,7.37
2022-11-26T16:32:23.585Z,6.38
2022-11-26T16:34:49.693Z,6.70
2022-11-26T16:37:22.439Z,6.83
2022-11-26T16:39:50.736Z,5.57
2022-11-26T16:42:19.289Z,7.04
2022-11-26T16:44:45.631Z,7.17
2022-11-26T16:47:27.777Z,7.22
2022-11-26T16:49:54.134Z,5.73
2022-11-26T16:52:20.290Z,7.33
2022-11-26T16:54:47.340Z,7.26
2022-11-26T16:57:18.197Z,6.93
2022-11-26T16:59:48.610Z,-0.59
2022-11-26T17:02:16.847Z,7.06
2022-11-26T17:04:43.582Z,6.84
2022-11-26T17:07:14.978Z,6.80
2022-11-26T17:09:41.811Z,7.16
2022-11-26T17:12:20.582Z,7.20
2022-11-26T17:14:47.225Z,7.14
2022-11-26T17:17:20.367Z,6.78
2022-11-26T17:19:49.895Z,7.05
2022-11-26T17:22:16.030Z,6.87
2022-11-26T17:24:42.083Z,6.55
2022-11-26T17:27:16.315Z,6.75
2022-11-26T17:29:43.387Z,6.82
2022-11-26T17:32:14.283Z,6.73
2022-11-26T17:34:40.642Z,6.78
2022-11-26T17:37:13.271Z,6.01
2022-11-26T17:39:39.390Z,6.52
2022-11-26T17:42:05.672Z,6.27
2022-11-26T17:44:31.719Z,6.54
2022-11-26T17:49:44.684Z,6.46
2022-11-26T17:52:11.041Z,5.83
2022-11-26T17:54:37.095Z,6.54
2022-11-26T17:57:03.583Z,6.63
2022-11-26T17:59:30.412Z,5.97
2022-11-26T18:01:56.603Z,6.36
2022-11-26T18:04:22.733Z,4.94
2022-11-26T18:07:17.450Z,5.51
2022-11-26T18:09:44.003Z,6.31
2022-11-26T18:12:25.263Z,6.45
2022-11-26T18:14:55.263Z,5.10
2022-11-26T18:17:21.360Z,6.58
2022-11-26T18:19:47.652Z,6.75
2022-11-26T18:22:16.172Z,6.89
2022-11-26T18:24:46.721Z,6.77
2022-11-26T18:27:12.780Z,6.08
2022-11-26T18:29:39.098Z,6.99
2022-11-26T18:32:05.439Z,6.89
2022-11-26T18:34:31.588Z,6.87
2022-11-26T18:36:57.606Z,6.62
2022-11-26T18:39:23.705Z,6.62
2022-11-26T18:41:49.781Z,6.65
2022-11-26T18:44:15.819Z,6.20
2022-11-26T18:46:41.963Z,6.70
2022-11-26T18:49:08.036Z,6.57
2022-11-26T18:51:34.085Z,6.46
2022-11-26T18:54:01.190Z,5.99
2022-11-26T18:56:27.242Z,6.70
2022-11-26T18:58:53.288Z,6.78
2022-11-26T19:01:27.960Z,6.64
2022-11-26T19:03:54.773Z,6.51
2022-11-26T19:06:24.667Z,6.52
2022-11-26T19:08:56.870Z,6.55
2022-11-26T19:11:23.874Z,6.53
2022-11-26T19:13:50.358Z,6.64
2022-11-26T19:16:18.629Z,6.56
2022-11-26T19:18:45.345Z,6.37
2022-11-26T19:21:19.003Z,6.62
2022-11-26T19:23:45.090Z,6.40
2022-11-26T19:26:11.443Z,6.08
2022-11-26T19:28:37.489Z,6.43
2022-11-26T19:31:06.353Z,6.29
2022-11-26T19:33:32.997Z,6.43
2022-11-26T19:36:10.649Z,6.56
2022-11-26T19:38:37.229Z,6.36
2022-11-26T19:41:04.315Z,6.43
2022-11-26T19:43:33.524Z,6.47
2022-11-26T19:46:19.287Z,6.51
2022-11-26T19:48:47.081Z,6.35
2022-11-26T19:51:14.696Z,5.17
2022-11-26T19:53:41.313Z,5.81
2022-11-26T19:56:11.049Z,6.24
2022-11-26T19:58:37.098Z,6.45
2022-11-26T20:01:08.362Z,6.44
2022-11-26T20:03:37.544Z,6.29
2022-11-26T20:06:06.307Z,4.61
2022-11-26T20:08:33.816Z,6.33
2022-11-26T20:11:04.920Z,6.54
2022-11-26T20:13:31.637Z,6.45
2022-11-26T20:15:57.757Z,6.33
2022-11-26T20:18:23.885Z,6.41
2022-11-26T20:21:19.116Z,6.29
2022-11-26T20:23:45.698Z,6.36
2022-11-26T20:26:14.968Z,6.39
2022-11-26T20:28:41.090Z,5.10
2022-11-26T20:31:07.349Z,6.21
2022-11-26T20:33:34.704Z,5.52
2022-11-26T20:36:04.588Z,6.35
2022-11-26T20:38:30.625Z,5.27
2022-11-26T20:40:56.661Z,6.03
2022-11-26T20:43:22.722Z,6.23
2022-11-26T20:45:48.866Z,5.94
2022-11-26T20:48:14.989Z,5.42
2022-11-26T20:50:41.038Z,4.36
2022-11-26T20:53:07.087Z,4.91
2022-11-26T20:55:33.147Z,6.33
2022-11-26T20:57:59.196Z,6.25
2022-11-26T21:00:27.694Z,6.13
2022-11-26T21:02:54.100Z,6.16
2022-11-26T21:05:21.849Z,6.26
2022-11-26T21:07:50.080Z,6.38
2022-11-26T21:10:16.235Z,6.25
2022-11-26T21:12:42.378Z,6.03
2022-11-26T21:15:09.082Z,6.26
2022-11-26T21:17:35.521Z,6.05
2022-11-26T21:20:01.659Z,6.06
2022-11-26T21:22:27.796Z,6.17
2022-11-26T21:24:53.956Z,6.17
2022-11-26T21:27:19.984Z,5.96
2022-11-26T21:29:46.099Z,5.90
2022-11-26T21:32:12.203Z,6.32
2022-11-26T21:34:38.229Z,6.21
2022-11-26T21:37:04.285Z,6.29
2022-11-26T21:39:30.411Z,6.31
2022-11-26T21:41:56.469Z,6.18
2022-11-26T21:44:23.038Z,5.90
2022-11-26T21:46:49.064Z,6.28
2022-11-26T21:49:15.103Z,6.27
2022-11-26T21:51:41.807Z,4.62
2022-11-26T21:54:08.136Z,6.23
2022-11-26T21:56:34.196Z,6.41
2022-11-26T21:59:00.594Z,5.27
2022-11-26T22:01:34.288Z,6.35
2022-11-26T22:04:03.725Z,6.11
2022-11-26T22:06:30.217Z,6.11
2022-11-26T22:08:56.527Z,5.02
2022-11-26T22:11:27.898Z,5.40
2022-11-26T22:13:54.145Z,6.01
2022-11-26T22:16:21.977Z,6.26
2022-11-26T22:18:48.665Z,5.98
2022-11-26T22:21:18.104Z,6.32
2022-11-26T22:23:44.486Z,5.49
2022-11-26T22:26:10.680Z,6.10
2022-11-26T22:28:38.211Z,6.36
2022-11-26T22:31:14.582Z,6.39
2022-11-26T22:33:40.800Z,6.25
2022-11-26T22:36:07.452Z,6.29
2022-11-26T22:38:34.597Z,6.28
2022-11-26T22:41:05.019Z,4.41
2022-11-26T22:43:31.528Z,5.91
2022-11-26T22:45:58.120Z,5.64
2022-11-26T22:48:24.273Z,6.04
2022-11-26T22:50:54.049Z,6.29
2022-11-26T22:53:20.981Z,5.26
2022-11-26T22:55:54.176Z,6.30
2022-11-26T22:58:21.494Z,6.29
2022-11-26T23:00:52.510Z,6.33
2022-11-26T23:03:19.458Z,6.10
2022-11-26T23:05:46.078Z,6.13
2022-11-26T23:08:12.932Z,6.37
2022-11-26T23:10:39.336Z,4.42
2022-11-26T23:13:05.739Z,6.15
2022-11-26T23:15:32.200Z,5.52
2022-11-26T23:17:58.471Z,6.04
2022-11-26T23:20:24.941Z,6.11
2022-11-26T23:22:50.988Z,6.22
2022-11-26T23:25:17.163Z,6.40
2022-11-26T23:27:43.222Z,5.56
2022-11-26T23:30:09.760Z,6.30
2022-11-26T23:32:35.811Z,6.21
2022-11-26T23:35:01.913Z,6.00
2022-11-26T23:37:27.946Z,6.27
2022-11-26T23:39:53.987Z,6.25
2022-11-26T23:42:20.039Z,6.19
2022-11-26T23:44:46.071Z,6.22
2022-11-26T23:47:12.120Z,6.18
2022-11-26T23:49:38.477Z,5.86
2022-11-26T23:52:05.351Z,6.28
2022-11-26T23:54:31.563Z,6.26
2022-11-26T23:56:57.608Z,5.97
2022-11-26T23:59:23.695Z,6.18
